sensor_id;sensor_type;location;lat;lon;timestamp;P1;durP1;ratioP1;P2;durP2;ratioP2
70433;SDS011;57876;47.792;12.960;2023-07-20T00:01:32;6.40;;;2.27;;
70433;SDS011;57876;47.792;12.960;2023-07-20T00:03:56;5.70;;;2.37;;
70433;SDS011;57876;47.792;12.960;2023-07-20T00:06:21;5.72;;;2.30;;
70433;SDS011;57876;47.792;12.960;2023-07-20T00:08:47;5.67;;;2.37;;
70433;SDS011;57876;47.792;12.960;2023-07-20T00:11:12;5.55;;;2.20;;
70433;SDS011;57876;47.792;12.960;2023-07-20T00:13:37;5.97;;;2.10;;
70433;SDS011;57876;47.792;12.960;2023-07-20T00:16:01;6.38;;;2.20;;
70433;SDS011;57876;47.792;12.960;2023-07-20T00:18:26;5.73;;;2.30;;
70433;SDS011;57876;47.792;12.960;2023-07-20T00:20:50;5.93;;;2.10;;
70433;SDS011;57876;47.792;12.960;2023-07-20T00:23:15;6.60;;;2.13;;
70433;SDS011;57876;47.792;12.960;2023-07-20T00:25:39;5.23;;;1.80;;
70433;SDS011;57876;47.792;12.960;2023-07-20T00:28:03;5.70;;;2.10;;
70433;SDS011;57876;47.792;12.960;2023-07-20T00:30:28;5.93;;;2.30;;
70433;SDS011;57876;47.792;12.960;2023-07-20T00:32:52;6.13;;;2.20;;
70433;SDS011;57876;47.792;12.960;2023-07-20T00:35:17;5.40;;;2.10;;
70433;SDS011;57876;47.792;12.960;2023-07-20T00:37:41;5.83;;;2.37;;
70433;SDS011;57876;47.792;12.960;2023-07-20T00:40:06;6.03;;;2.30;;
70433;SDS011;57876;47.792;12.960;2023-07-20T00:42:33;5.35;;;2.05;;
70433;SDS011;57876;47.792;12.960;2023-07-20T00:44:58;5.93;;;2.40;;
70433;SDS011;57876;47.792;12.960;2023-07-20T00:47:22;6.25;;;2.38;;
70433;SDS011;57876;47.792;12.960;2023-07-20T00:49:47;5.80;;;2.10;;
70433;SDS011;57876;47.792;12.960;2023-07-20T00:52:12;7.03;;;2.30;;
70433;SDS011;57876;47.792;12.960;2023-07-20T00:54:38;6.28;;;2.13;;
70433;SDS011;57876;47.792;12.960;2023-07-20T00:57:03;6.27;;;2.00;;
70433;SDS011;57876;47.792;12.960;2023-07-20T00:59:28;5.70;;;2.15;;
70433;SDS011;57876;47.792;12.960;2023-07-20T01:01:53;5.45;;;2.22;;
70433;SDS011;57876;47.792;12.960;2023-07-20T01:04:18;6.37;;;2.33;;
70433;SDS011;57876;47.792;12.960;2023-07-20T01:07:26;5.63;;;2.10;;
70433;SDS011;57876;47.792;12.960;2023-07-20T01:14:46;5.68;;;2.00;;
70433;SDS011;57876;47.792;12.960;2023-07-20T01:17:10;5.77;;;2.10;;
70433;SDS011;57876;47.792;12.960;2023-07-20T01:19:36;5.28;;;2.00;;
70433;SDS011;57876;47.792;12.960;2023-07-20T01:22:09;5.70;;;2.30;;
70433;SDS011;57876;47.792;12.960;2023-07-20T01:24:40;5.80;;;1.80;;
70433;SDS011;57876;47.792;12.960;2023-07-20T01:30:08;6.22;;;2.30;;
70433;SDS011;57876;47.792;12.960;2023-07-20T01:32:43;5.70;;;2.20;;
70433;SDS011;57876;47.792;12.960;2023-07-20T01:35:12;6.32;;;2.13;;
70433;SDS011;57876;47.792;12.960;2023-07-20T01:37:42;5.95;;;2.20;;
70433;SDS011;57876;47.792;12.960;2023-07-20T01:40:09;5.57;;;2.30;;
70433;SDS011;57876;47.792;12.960;2023-07-20T01:42:34;6.07;;;2.30;;
70433;SDS011;57876;47.792;12.960;2023-07-20T01:44:58;6.13;;;2.30;;
70433;SDS011;57876;47.792;12.960;2023-07-20T01:47:23;5.37;;;2.03;;
70433;SDS011;57876;47.792;12.960;2023-07-20T01:49:47;5.37;;;2.00;;
70433;SDS011;57876;47.792;12.960;2023-07-20T01:52:12;5.65;;;2.30;;
70433;SDS011;57876;47.792;12.960;2023-07-20T01:54:36;5.50;;;1.83;;
70433;SDS011;57876;47.792;12.960;2023-07-20T01:57:01;6.07;;;2.20;;
70433;SDS011;57876;47.792;12.960;2023-07-20T01:59:25;5.43;;;2.00;;
70433;SDS011;57876;47.792;12.960;2023-07-20T02:01:50;5.47;;;2.23;;
70433;SDS011;57876;47.792;12.960;2023-07-20T02:04:14;6.05;;;2.28;;
70433;SDS011;57876;47.792;12.960;2023-07-20T02:06:39;5.70;;;2.30;;
70433;SDS011;57876;47.792;12.960;2023-07-20T02:09:03;5.43;;;1.90;;
70433;SDS011;57876;47.792;12.960;2023-07-20T02:11:28;5.37;;;2.20;;
70433;SDS011;57876;47.792;12.960;2023-07-20T02:13:52;5.13;;;1.87;;
70433;SDS011;57876;47.792;12.960;2023-07-20T02:16:16;6.60;;;2.40;;
70433;SDS011;57876;47.792;12.960;2023-07-20T02:18:41;5.83;;;2.13;;
70433;SDS011;57876;47.792;12.960;2023-07-20T02:21:05;5.32;;;2.10;;
70433;SDS011;57876;47.792;12.960;2023-07-20T02:23:30;5.53;;;2.10;;
70433;SDS011;57876;47.792;12.960;2023-07-20T02:25:55;5.57;;;1.90;;
70433;SDS011;57876;47.792;12.960;2023-07-20T02:28:20;5.88;;;2.15;;
70433;SDS011;57876;47.792;12.960;2023-07-20T02:30:44;6.87;;;2.47;;
70433;SDS011;57876;47.792;12.960;2023-07-20T02:33:08;6.17;;;2.00;;
70433;SDS011;57876;47.792;12.960;2023-07-20T02:35:33;6.97;;;2.33;;
70433;SDS011;57876;47.792;12.960;2023-07-20T02:37:57;5.10;;;2.03;;
70433;SDS011;57876;47.792;12.960;2023-07-20T02:40:21;6.13;;;2.13;;
70433;SDS011;57876;47.792;12.960;2023-07-20T02:42:47;5.70;;;1.92;;
70433;SDS011;57876;47.792;12.960;2023-07-20T02:45:11;6.47;;;2.10;;
70433;SDS011;57876;47.792;12.960;2023-07-20T02:47:36;5.57;;;2.20;;
70433;SDS011;57876;47.792;12.960;2023-07-20T02:50:00;5.83;;;2.17;;
70433;SDS011;57876;47.792;12.960;2023-07-20T02:52:27;5.80;;;1.98;;
70433;SDS011;57876;47.792;12.960;2023-07-20T02:54:53;5.13;;;1.80;;
70433;SDS011;57876;47.792;12.960;2023-07-20T02:57:17;5.30;;;1.80;;
70433;SDS011;57876;47.792;12.960;2023-07-20T02:59:42;5.47;;;2.03;;
70433;SDS011;57876;47.792;12.960;2023-07-20T03:02:06;5.57;;;1.90;;
70433;SDS011;57876;47.792;12.960;2023-07-20T03:04:33;5.50;;;1.90;;
70433;SDS011;57876;47.792;12.960;2023-07-20T03:06:58;6.07;;;2.03;;
70433;SDS011;57876;47.792;12.960;2023-07-20T03:09:23;5.93;;;2.00;;
70433;SDS011;57876;47.792;12.960;2023-07-20T03:11:49;5.17;;;2.13;;
70433;SDS011;57876;47.792;12.960;2023-07-20T03:14:13;6.00;;;2.10;;
70433;SDS011;57876;47.792;12.960;2023-07-20T03:16:38;5.33;;;2.07;;
70433;SDS011;57876;47.792;12.960;2023-07-20T03:19:03;5.80;;;2.10;;
70433;SDS011;57876;47.792;12.960;2023-07-20T03:21:30;5.72;;;2.20;;
70433;SDS011;57876;47.792;12.960;2023-07-20T03:23:54;5.37;;;2.03;;
70433;SDS011;57876;47.792;12.960;2023-07-20T03:26:19;5.68;;;1.90;;
70433;SDS011;57876;47.792;12.960;2023-07-20T03:28:44;5.20;;;1.80;;
70433;SDS011;57876;47.792;12.960;2023-07-20T03:31:08;5.90;;;2.07;;
70433;SDS011;57876;47.792;12.960;2023-07-20T03:33:33;5.63;;;1.97;;
70433;SDS011;57876;47.792;12.960;2023-07-20T03:35:58;5.67;;;1.90;;
70433;SDS011;57876;47.792;12.960;2023-07-20T03:38:22;5.05;;;2.00;;
70433;SDS011;57876;47.792;12.960;2023-07-20T03:40:51;5.97;;;2.40;;
70433;SDS011;57876;47.792;12.960;2023-07-20T03:43:17;5.03;;;1.92;;
70433;SDS011;57876;47.792;12.960;2023-07-20T03:45:41;5.07;;;1.90;;
70433;SDS011;57876;47.792;12.960;2023-07-20T03:48:06;4.88;;;1.85;;
70433;SDS011;57876;47.792;12.960;2023-07-20T03:50:30;5.87;;;2.00;;
70433;SDS011;57876;47.792;12.960;2023-07-20T03:52:55;5.53;;;1.87;;
70433;SDS011;57876;47.792;12.960;2023-07-20T03:55:19;5.03;;;1.90;;
70433;SDS011;57876;47.792;12.960;2023-07-20T03:57:44;5.45;;;2.10;;
70433;SDS011;57876;47.792;12.960;2023-07-20T04:00:08;5.50;;;1.70;;
70433;SDS011;57876;47.792;12.960;2023-07-20T04:02:33;5.03;;;1.77;;
70433;SDS011;57876;47.792;12.960;2023-07-20T04:04:58;5.57;;;1.90;;
70433;SDS011;57876;47.792;12.960;2023-07-20T04:07:22;5.50;;;1.90;;
70433;SDS011;57876;47.792;12.960;2023-07-20T04:09:47;5.78;;;1.88;;
70433;SDS011;57876;47.792;12.960;2023-07-20T04:12:11;5.60;;;2.00;;
70433;SDS011;57876;47.792;12.960;2023-07-20T04:14:36;5.90;;;2.10;;
70433;SDS011;57876;47.792;12.960;2023-07-20T04:17:00;5.10;;;1.80;;
70433;SDS011;57876;47.792;12.960;2023-07-20T04:19:25;5.27;;;1.80;;
70433;SDS011;57876;47.792;12.960;2023-07-20T04:21:49;5.03;;;1.80;;
70433;SDS011;57876;47.792;12.960;2023-07-20T04:24:13;5.50;;;1.90;;
70433;SDS011;57876;47.792;12.960;2023-07-20T04:26:38;5.23;;;1.70;;
70433;SDS011;57876;47.792;12.960;2023-07-20T04:29:03;5.15;;;1.75;;
70433;SDS011;57876;47.792;12.960;2023-07-20T04:31:27;5.40;;;2.13;;
70433;SDS011;57876;47.792;12.960;2023-07-20T04:33:52;5.53;;;2.00;;
70433;SDS011;57876;47.792;12.960;2023-07-20T04:36:16;5.60;;;1.97;;
70433;SDS011;57876;47.792;12.960;2023-07-20T04:38:43;5.18;;;1.88;;
70433;SDS011;57876;47.792;12.960;2023-07-20T04:41:07;5.60;;;2.00;;
70433;SDS011;57876;47.792;12.960;2023-07-20T04:43:32;5.60;;;1.90;;
70433;SDS011;57876;47.792;12.960;2023-07-20T04:45:56;5.23;;;1.87;;
70433;SDS011;57876;47.792;12.960;2023-07-20T04:48:21;6.63;;;2.05;;
70433;SDS011;57876;47.792;12.960;2023-07-20T04:50:45;5.50;;;2.10;;
70433;SDS011;57876;47.792;12.960;2023-07-20T04:53:10;5.60;;;2.10;;
70433;SDS011;57876;47.792;12.960;2023-07-20T04:55:35;5.82;;;2.13;;
70433;SDS011;57876;47.792;12.960;2023-07-20T04:58:01;5.70;;;1.88;;
70433;SDS011;57876;47.792;12.960;2023-07-20T05:00:25;5.23;;;1.80;;
70433;SDS011;57876;47.792;12.960;2023-07-20T05:02:49;5.43;;;1.83;;
70433;SDS011;57876;47.792;12.960;2023-07-20T05:05:14;6.93;;;1.92;;
70433;SDS011;57876;47.792;12.960;2023-07-20T05:07:42;5.35;;;2.00;;
70433;SDS011;57876;47.792;12.960;2023-07-20T05:10:07;5.40;;;2.03;;
70433;SDS011;57876;47.792;12.960;2023-07-20T05:12:31;5.27;;;2.00;;
70433;SDS011;57876;47.792;12.960;2023-07-20T05:14:56;5.50;;;2.00;;
70433;SDS011;57876;47.792;12.960;2023-07-20T05:17:20;5.22;;;1.92;;
70433;SDS011;57876;47.792;12.960;2023-07-20T05:19:45;5.67;;;1.97;;
70433;SDS011;57876;47.792;12.960;2023-07-20T05:22:11;5.40;;;1.90;;
70433;SDS011;57876;47.792;12.960;2023-07-20T05:24:37;5.30;;;1.90;;
70433;SDS011;57876;47.792;12.960;2023-07-20T05:27:01;5.53;;;2.20;;
70433;SDS011;57876;47.792;12.960;2023-07-20T05:29:27;5.30;;;2.00;;
70433;SDS011;57876;47.792;12.960;2023-07-20T05:31:51;5.50;;;1.80;;
70433;SDS011;57876;47.792;12.960;2023-07-20T05:34:16;5.37;;;2.00;;
70433;SDS011;57876;47.792;12.960;2023-07-20T05:39:36;5.47;;;2.10;;
70433;SDS011;57876;47.792;12.960;2023-07-20T05:42:00;5.27;;;2.10;;
70433;SDS011;57876;47.792;12.960;2023-07-20T05:44:25;5.20;;;1.77;;
70433;SDS011;57876;47.792;12.960;2023-07-20T05:46:49;5.40;;;1.93;;
70433;SDS011;57876;47.792;12.960;2023-07-20T05:49:14;5.13;;;1.70;;
70433;SDS011;57876;47.792;12.960;2023-07-20T05:51:38;5.00;;;1.90;;
70433;SDS011;57876;47.792;12.960;2023-07-20T05:54:03;5.20;;;1.73;;
70433;SDS011;57876;47.792;12.960;2023-07-20T05:56:27;5.53;;;2.10;;
70433;SDS011;57876;47.792;12.960;2023-07-20T05:58:51;5.37;;;2.00;;
70433;SDS011;57876;47.792;12.960;2023-07-20T06:01:16;5.40;;;1.90;;
70433;SDS011;57876;47.792;12.960;2023-07-20T06:03:42;5.45;;;2.25;;
70433;SDS011;57876;47.792;12.960;2023-07-20T06:06:06;5.33;;;1.80;;
70433;SDS011;57876;47.792;12.960;2023-07-20T06:08:33;5.50;;;1.90;;
70433;SDS011;57876;47.792;12.960;2023-07-20T06:10:57;5.95;;;2.10;;
70433;SDS011;57876;47.792;12.960;2023-07-20T06:13:22;5.50;;;1.87;;
70433;SDS011;57876;47.792;12.960;2023-07-20T06:15:47;5.47;;;2.10;;
70433;SDS011;57876;47.792;12.960;2023-07-20T06:18:11;5.30;;;1.90;;
70433;SDS011;57876;47.792;12.960;2023-07-20T06:20:36;5.70;;;2.20;;
70433;SDS011;57876;47.792;12.960;2023-07-20T06:23:03;5.13;;;1.70;;
70433;SDS011;57876;47.792;12.960;2023-07-20T06:25:27;5.40;;;2.20;;
70433;SDS011;57876;47.792;12.960;2023-07-20T06:27:52;5.20;;;2.00;;
70433;SDS011;57876;47.792;12.960;2023-07-20T06:30:17;5.07;;;1.80;;
70433;SDS011;57876;47.792;12.960;2023-07-20T06:32:42;5.75;;;2.10;;
70433;SDS011;57876;47.792;12.960;2023-07-20T06:35:06;5.20;;;1.90;;
70433;SDS011;57876;47.792;12.960;2023-07-20T06:37:32;5.60;;;1.92;;
70433;SDS011;57876;47.792;12.960;2023-07-20T06:39:57;4.93;;;1.93;;
70433;SDS011;57876;47.792;12.960;2023-07-20T06:42:21;5.07;;;1.70;;
70433;SDS011;57876;47.792;12.960;2023-07-20T06:44:45;5.30;;;1.97;;
70433;SDS011;57876;47.792;12.960;2023-07-20T06:47:10;4.88;;;1.70;;
70433;SDS011;57876;47.792;12.960;2023-07-20T06:49:34;5.40;;;1.93;;
70433;SDS011;57876;47.792;12.960;2023-07-20T06:51:58;5.00;;;1.70;;
70433;SDS011;57876;47.792;12.960;2023-07-20T06:54:23;5.30;;;2.00;;
70433;SDS011;57876;47.792;12.960;2023-07-20T06:56:48;5.65;;;2.10;;
70433;SDS011;57876;47.792;12.960;2023-07-20T06:59:12;5.63;;;1.80;;
70433;SDS011;57876;47.792;12.960;2023-07-20T07:01:37;5.50;;;2.10;;
70433;SDS011;57876;47.792;12.960;2023-07-20T07:04:01;5.27;;;2.00;;
70433;SDS011;57876;47.792;12.960;2023-07-20T07:06:25;5.20;;;2.10;;
70433;SDS011;57876;47.792;12.960;2023-07-20T07:08:52;4.88;;;1.90;;
70433;SDS011;57876;47.792;12.960;2023-07-20T07:11:16;5.10;;;1.70;;
70433;SDS011;57876;47.792;12.960;2023-07-20T07:13:40;4.57;;;1.63;;
70433;SDS011;57876;47.792;12.960;2023-07-20T07:16:05;5.93;;;1.93;;
70433;SDS011;57876;47.792;12.960;2023-07-20T07:18:29;7.10;;;2.20;;
70433;SDS011;57876;47.792;12.960;2023-07-20T07:20:59;5.23;;;1.80;;
70433;SDS011;57876;47.792;12.960;2023-07-20T07:23:23;7.43;;;1.90;;
70433;SDS011;57876;47.792;12.960;2023-07-20T07:25:48;4.80;;;1.80;;
70433;SDS011;57876;47.792;12.960;2023-07-20T07:28:12;5.40;;;1.93;;
70433;SDS011;57876;47.792;12.960;2023-07-20T07:30:37;5.40;;;2.10;;
70433;SDS011;57876;47.792;12.960;2023-07-20T07:33:02;7.57;;;1.98;;
70433;SDS011;57876;47.792;12.960;2023-07-20T07:35:26;4.97;;;1.90;;
70433;SDS011;57876;47.792;12.960;2023-07-20T07:37:51;5.10;;;1.80;;
70433;SDS011;57876;47.792;12.960;2023-07-20T07:40:15;6.03;;;2.00;;
70433;SDS011;57876;47.792;12.960;2023-07-20T07:42:39;4.90;;;1.80;;
70433;SDS011;57876;47.792;12.960;2023-07-20T07:45:04;5.63;;;1.80;;
70433;SDS011;57876;47.792;12.960;2023-07-20T07:47:29;5.65;;;1.92;;
70433;SDS011;57876;47.792;12.960;2023-07-20T07:49:53;6.30;;;1.90;;
70433;SDS011;57876;47.792;12.960;2023-07-20T07:52:18;5.60;;;1.97;;
70433;SDS011;57876;47.792;12.960;2023-07-20T07:54:42;6.63;;;2.00;;
70433;SDS011;57876;47.792;12.960;2023-07-20T07:57:06;5.72;;;1.70;;
70433;SDS011;57876;47.792;12.960;2023-07-20T07:59:31;4.90;;;1.90;;
70433;SDS011;57876;47.792;12.960;2023-07-20T08:02:00;5.15;;;1.80;;
70433;SDS011;57876;47.792;12.960;2023-07-20T08:04:24;6.00;;;1.90;;
70433;SDS011;57876;47.792;12.960;2023-07-20T08:06:49;5.40;;;1.90;;
70433;SDS011;57876;47.792;12.960;2023-07-20T08:09:13;9.07;;;1.77;;
70433;SDS011;57876;47.792;12.960;2023-07-20T08:11:39;5.70;;;2.00;;
70433;SDS011;57876;47.792;12.960;2023-07-20T08:14:03;5.90;;;1.80;;
70433;SDS011;57876;47.792;12.960;2023-07-20T08:16:28;4.90;;;1.60;;
70433;SDS011;57876;47.792;12.960;2023-07-20T08:18:52;5.30;;;1.83;;
70433;SDS011;57876;47.792;12.960;2023-07-20T08:21:17;5.10;;;1.77;;
70433;SDS011;57876;47.792;12.960;2023-07-20T08:23:41;5.27;;;1.90;;
70433;SDS011;57876;47.792;12.960;2023-07-20T08:26:05;4.95;;;1.70;;
70433;SDS011;57876;47.792;12.960;2023-07-20T08:28:30;5.70;;;1.87;;
70433;SDS011;57876;47.792;12.960;2023-07-20T08:30:55;5.00;;;1.63;;
70433;SDS011;57876;47.792;12.960;2023-07-20T08:33:20;5.60;;;1.80;;
70433;SDS011;57876;47.792;12.960;2023-07-20T08:35:44;6.70;;;1.60;;
70433;SDS011;57876;47.792;12.960;2023-07-20T08:38:09;5.50;;;1.60;;
70433;SDS011;57876;47.792;12.960;2023-07-20T08:40:33;5.80;;;2.00;;
70433;SDS011;57876;47.792;12.960;2023-07-20T08:43:03;9.18;;;2.17;;
70433;SDS011;57876;47.792;12.960;2023-07-20T08:45:28;9.20;;;2.30;;
70433;SDS011;57876;47.792;12.960;2023-07-20T08:47:58;10.80;;;1.65;;
70433;SDS011;57876;47.792;12.960;2023-07-20T08:50:23;11.88;;;1.90;;
70433;SDS011;57876;47.792;12.960;2023-07-20T08:52:50;6.50;;;1.90;;
70433;SDS011;57876;47.792;12.960;2023-07-20T08:55:16;7.80;;;2.00;;
70433;SDS011;57876;47.792;12.960;2023-07-20T09:03:04;8.48;;;2.00;;
70433;SDS011;57876;47.792;12.960;2023-07-20T09:05:29;8.02;;;2.15;;
70433;SDS011;57876;47.792;12.960;2023-07-20T09:07:54;6.97;;;2.07;;
70433;SDS011;57876;47.792;12.960;2023-07-20T09:10:24;7.03;;;1.90;;
70433;SDS011;57876;47.792;12.960;2023-07-20T09:12:49;8.30;;;1.90;;
70433;SDS011;57876;47.792;12.960;2023-07-20T09:15:14;5.93;;;2.20;;
70433;SDS011;57876;47.792;12.960;2023-07-20T09:17:38;6.13;;;2.10;;
70433;SDS011;57876;47.792;12.960;2023-07-20T09:20:06;9.93;;;2.30;;
70433;SDS011;57876;47.792;12.960;2023-07-20T09:22:34;6.97;;;2.07;;
70433;SDS011;57876;47.792;12.960;2023-07-20T09:24:59;7.55;;;2.20;;
70433;SDS011;57876;47.792;12.960;2023-07-20T09:27:39;5.63;;;2.03;;
70433;SDS011;57876;47.792;12.960;2023-07-20T09:30:05;7.15;;;2.00;;
70433;SDS011;57876;47.792;12.960;2023-07-20T09:32:37;7.97;;;2.05;;
70433;SDS011;57876;47.792;12.960;2023-07-20T09:35:03;6.15;;;2.20;;
70433;SDS011;57876;47.792;12.960;2023-07-20T09:37:28;6.87;;;2.30;;
70433;SDS011;57876;47.792;12.960;2023-07-20T09:39:52;5.93;;;1.98;;
70433;SDS011;57876;47.792;12.960;2023-07-20T09:42:17;7.63;;;1.90;;
70433;SDS011;57876;47.792;12.960;2023-07-20T09:44:45;6.45;;;1.90;;
70433;SDS011;57876;47.792;12.960;2023-07-20T09:47:10;5.70;;;2.00;;
70433;SDS011;57876;47.792;12.960;2023-07-20T09:49:40;6.20;;;1.93;;
70433;SDS011;57876;47.792;12.960;2023-07-20T09:52:05;7.18;;;2.00;;
70433;SDS011;57876;47.792;12.960;2023-07-20T09:54:32;5.80;;;1.80;;
70433;SDS011;57876;47.792;12.960;2023-07-20T09:56:57;6.77;;;2.10;;
70433;SDS011;57876;47.792;12.960;2023-07-20T09:59:22;6.97;;;1.92;;
70433;SDS011;57876;47.792;12.960;2023-07-20T10:01:47;6.70;;;1.97;;
70433;SDS011;57876;47.792;12.960;2023-07-20T12:57:04;9.43;;;2.13;;
70433;SDS011;57876;47.792;12.960;2023-07-20T12:59:29;5.83;;;2.00;;
70433;SDS011;57876;47.792;12.960;2023-07-20T13:01:53;6.78;;;2.05;;
70433;SDS011;57876;47.792;12.960;2023-07-20T13:04:17;5.37;;;1.80;;
70433;SDS011;57876;47.792;12.960;2023-07-20T13:06:42;7.03;;;1.90;;
70433;SDS011;57876;47.792;12.960;2023-07-20T13:09:06;5.80;;;1.73;;
70433;SDS011;57876;47.792;12.960;2023-07-20T13:11:31;8.67;;;2.17;;
70433;SDS011;57876;47.792;12.960;2023-07-20T13:13:56;6.50;;;1.90;;
70433;SDS011;57876;47.792;12.960;2023-07-20T13:16:20;5.53;;;1.90;;
70433;SDS011;57876;47.792;12.960;2023-07-20T13:18:45;5.47;;;1.57;;
70433;SDS011;57876;47.792;12.960;2023-07-20T13:21:09;5.20;;;1.77;;
70433;SDS011;57876;47.792;12.960;2023-07-20T13:23:35;7.72;;;2.00;;
70433;SDS011;57876;47.792;12.960;2023-07-20T13:26:02;5.50;;;1.77;;
70433;SDS011;57876;47.792;12.960;2023-07-20T13:28:29;5.97;;;1.70;;
70433;SDS011;57876;47.792;12.960;2023-07-20T13:30:54;5.85;;;1.70;;
70433;SDS011;57876;47.792;12.960;2023-07-20T13:33:18;6.63;;;1.70;;
70433;SDS011;57876;47.792;12.960;2023-07-20T13:35:43;6.90;;;1.70;;
70433;SDS011;57876;47.792;12.960;2023-07-20T13:38:07;5.10;;;1.97;;
70433;SDS011;57876;47.792;12.960;2023-07-20T13:40:32;5.73;;;1.80;;
70433;SDS011;57876;47.792;12.960;2023-07-20T13:42:56;4.97;;;1.80;;
70433;SDS011;57876;47.792;12.960;2023-07-20T13:45:21;5.80;;;1.93;;
70433;SDS011;57876;47.792;12.960;2023-07-20T13:47:45;5.20;;;1.60;;
70433;SDS011;57876;47.792;12.960;2023-07-20T13:50:10;5.90;;;1.80;;
70433;SDS011;57876;47.792;12.960;2023-07-20T13:52:34;4.90;;;1.73;;
70433;SDS011;57876;47.792;12.960;2023-07-20T13:55:01;4.97;;;1.60;;
70433;SDS011;57876;47.792;12.960;2023-07-20T13:57:25;5.85;;;1.63;;
70433;SDS011;57876;47.792;12.960;2023-07-20T13:59:49;5.03;;;1.60;;
70433;SDS011;57876;47.792;12.960;2023-07-20T14:02:14;6.93;;;1.70;;
70433;SDS011;57876;47.792;12.960;2023-07-20T14:04:39;5.47;;;1.63;;
70433;SDS011;57876;47.792;12.960;2023-07-20T14:07:04;4.33;;;1.30;;
70433;SDS011;57876;47.792;12.960;2023-07-20T14:09:28;4.97;;;1.73;;
70433;SDS011;57876;47.792;12.960;2023-07-20T14:11:53;6.97;;;1.83;;
70433;SDS011;57876;47.792;12.960;2023-07-20T14:14:17;4.70;;;1.50;;
70433;SDS011;57876;47.792;12.960;2023-07-20T14:16:41;5.30;;;1.83;;
70433;SDS011;57876;47.792;12.960;2023-07-20T14:19:06;4.90;;;1.60;;
70433;SDS011;57876;47.792;12.960;2023-07-20T14:21:30;4.80;;;1.48;;
70433;SDS011;57876;47.792;12.960;2023-07-20T14:23:55;5.50;;;1.80;;
70433;SDS011;57876;47.792;12.960;2023-07-20T14:26:19;5.53;;;1.60;;
70433;SDS011;57876;47.792;12.960;2023-07-20T14:28:44;5.05;;;1.90;;
70433;SDS011;57876;47.792;12.960;2023-07-20T14:31:09;5.17;;;1.90;;
70433;SDS011;57876;47.792;12.960;2023-07-20T14:33:33;4.63;;;1.47;;
70433;SDS011;57876;47.792;12.960;2023-07-20T14:35:58;4.82;;;1.60;;
70433;SDS011;57876;47.792;12.960;2023-07-20T14:38:23;5.60;;;1.90;;
70433;SDS011;57876;47.792;12.960;2023-07-20T14:40:47;6.13;;;1.50;;
70433;SDS011;57876;47.792;12.960;2023-07-20T14:43:12;4.50;;;1.40;;
70433;SDS011;57876;47.792;12.960;2023-07-20T14:45:38;4.43;;;1.50;;
70433;SDS011;57876;47.792;12.960;2023-07-20T14:48:02;4.63;;;1.40;;
70433;SDS011;57876;47.792;12.960;2023-07-20T14:50:27;4.43;;;1.60;;
70433;SDS011;57876;47.792;12.960;2023-07-20T14:52:51;4.53;;;1.60;;
70433;SDS011;57876;47.792;12.960;2023-07-20T14:55:15;4.47;;;1.40;;
70433;SDS011;57876;47.792;12.960;2023-07-20T14:57:41;5.00;;;1.60;;
70433;SDS011;57876;47.792;12.960;2023-07-20T15:00:05;4.80;;;1.70;;
70433;SDS011;57876;47.792;12.960;2023-07-20T15:02:34;4.97;;;1.70;;
70433;SDS011;57876;47.792;12.960;2023-07-20T15:04:58;5.80;;;1.90;;
70433;SDS011;57876;47.792;12.960;2023-07-20T15:07:23;4.70;;;1.73;;
70433;SDS011;57876;47.792;12.960;2023-07-20T15:09:48;4.57;;;1.50;;
70433;SDS011;57876;47.792;12.960;2023-07-20T15:12:12;5.10;;;1.83;;
70433;SDS011;57876;47.792;12.960;2023-07-20T15:14:41;5.05;;;1.70;;
70433;SDS011;57876;47.792;12.960;2023-07-20T15:17:06;5.28;;;1.55;;
70433;SDS011;57876;47.792;12.960;2023-07-20T15:19:30;4.50;;;1.50;;
70433;SDS011;57876;47.792;12.960;2023-07-20T15:21:55;4.80;;;1.93;;
70433;SDS011;57876;47.792;12.960;2023-07-20T15:24:20;5.50;;;1.73;;
70433;SDS011;57876;47.792;12.960;2023-07-20T15:26:44;4.60;;;1.50;;
70433;SDS011;57876;47.792;12.960;2023-07-20T15:29:09;5.40;;;1.70;;
70433;SDS011;57876;47.792;12.960;2023-07-20T15:31:33;5.00;;;1.55;;
70433;SDS011;57876;47.792;12.960;2023-07-20T15:33:57;4.77;;;1.50;;
70433;SDS011;57876;47.792;12.960;2023-07-20T15:36:22;5.27;;;1.53;;
70433;SDS011;57876;47.792;12.960;2023-07-20T15:38:46;4.33;;;1.40;;
70433;SDS011;57876;47.792;12.960;2023-07-20T15:41:11;5.23;;;1.70;;
70433;SDS011;57876;47.792;12.960;2023-07-20T15:43:36;4.82;;;1.50;;
70433;SDS011;57876;47.792;12.960;2023-07-20T15:46:01;5.23;;;1.60;;
70433;SDS011;57876;47.792;12.960;2023-07-20T15:48:46;4.85;;;1.52;;
70433;SDS011;57876;47.792;12.960;2023-07-20T15:51:11;5.13;;;1.73;;
70433;SDS011;57876;47.792;12.960;2023-07-20T15:53:35;5.43;;;1.67;;
70433;SDS011;57876;47.792;12.960;2023-07-20T15:56:00;4.80;;;1.55;;
70433;SDS011;57876;47.792;12.960;2023-07-20T15:58:24;5.10;;;1.47;;
70433;SDS011;57876;47.792;12.960;2023-07-20T16:00:52;4.57;;;1.50;;
70433;SDS011;57876;47.792;12.960;2023-07-20T16:03:19;4.60;;;1.33;;
70433;SDS011;57876;47.792;12.960;2023-07-20T16:05:43;4.33;;;1.50;;
70433;SDS011;57876;47.792;12.960;2023-07-20T16:08:07;4.73;;;1.30;;
70433;SDS011;57876;47.792;12.960;2023-07-20T16:10:32;4.33;;;1.47;;
70433;SDS011;57876;47.792;12.960;2023-07-20T16:12:56;6.32;;;1.77;;
70433;SDS011;57876;47.792;12.960;2023-07-20T16:15:20;4.80;;;1.30;;
70433;SDS011;57876;47.792;12.960;2023-07-20T16:17:45;4.60;;;1.37;;
70433;SDS011;57876;47.792;12.960;2023-07-20T16:20:10;5.03;;;1.40;;
70433;SDS011;57876;47.792;12.960;2023-07-20T16:22:34;4.57;;;1.48;;
70433;SDS011;57876;47.792;12.960;2023-07-20T16:24:59;4.40;;;1.20;;
70433;SDS011;57876;47.792;12.960;2023-07-20T16:27:24;4.63;;;1.52;;
70433;SDS011;57876;47.792;12.960;2023-07-20T16:29:48;4.30;;;1.50;;
70433;SDS011;57876;47.792;12.960;2023-07-20T16:32:12;4.63;;;1.33;;
70433;SDS011;57876;47.792;12.960;2023-07-20T16:34:40;4.57;;;1.50;;
70433;SDS011;57876;47.792;12.960;2023-07-20T16:37:04;4.60;;;1.30;;
70433;SDS011;57876;47.792;12.960;2023-07-20T16:39:28;4.60;;;1.40;;
70433;SDS011;57876;47.792;12.960;2023-07-20T16:41:54;4.43;;;1.27;;
70433;SDS011;57876;47.792;12.960;2023-07-20T16:44:21;4.73;;;1.33;;
70433;SDS011;57876;47.792;12.960;2023-07-20T16:46:57;4.38;;;1.25;;
70433;SDS011;57876;47.792;12.960;2023-07-20T16:49:36;4.30;;;1.17;;
70433;SDS011;57876;47.792;12.960;2023-07-20T16:52:12;4.82;;;1.05;;
70433;SDS011;57876;47.792;12.960;2023-07-20T16:54:37;4.40;;;1.10;;
70433;SDS011;57876;47.792;12.960;2023-07-20T16:57:01;5.73;;;1.80;;
70433;SDS011;57876;47.792;12.960;2023-07-20T16:59:27;4.57;;;1.42;;
70433;SDS011;57876;47.792;12.960;2023-07-20T17:01:51;4.43;;;1.50;;
70433;SDS011;57876;47.792;12.960;2023-07-20T17:04:16;4.78;;;1.30;;
70433;SDS011;57876;47.792;12.960;2023-07-20T17:06:40;4.60;;;1.43;;
70433;SDS011;57876;47.792;12.960;2023-07-20T17:09:04;4.73;;;1.27;;
70433;SDS011;57876;47.792;12.960;2023-07-20T17:11:29;4.30;;;1.20;;
70433;SDS011;57876;47.792;12.960;2023-07-20T17:13:54;4.30;;;1.20;;
70433;SDS011;57876;47.792;12.960;2023-07-20T17:16:18;4.63;;;1.40;;
70433;SDS011;57876;47.792;12.960;2023-07-20T17:18:42;4.30;;;1.27;;
70433;SDS011;57876;47.792;12.960;2023-07-20T17:21:07;4.03;;;1.17;;
70433;SDS011;57876;47.792;12.960;2023-07-20T17:23:31;4.30;;;1.30;;
70433;SDS011;57876;47.792;12.960;2023-07-20T17:25:56;4.67;;;1.43;;
70433;SDS011;57876;47.792;12.960;2023-07-20T17:28:21;4.20;;;1.20;;
70433;SDS011;57876;47.792;12.960;2023-07-20T17:30:45;4.33;;;1.57;;